King Philippos — 9HA3023 — position and weather

sailwx.info

Track history (hours):
 
Tides and Currents Weather Stations Pressure Air Temp Water Temp Dewpoint Dewpoint Depression Visibility Wind Speed Wind Dir Waves Ship Positions

King Philippos

Last reported at 2015-Feb-17 09:32 UTC. Time now 2015-Feb-28 17:29 UTC.
Position N 51°51' E 002°03'.
Warning: this ship's position is 11 days out of date.

Length 250 m; draft 8.5 m.

Type: Tanker. MMSI: 229046000.

Date/timePositionNaut miles runAvg speedWind from/ knotsBaromVisibWave heightAir tempDewpointWater temp
2015-Feb-17 09:32N 51°51' E 002°03'1111.7
2015-Feb-17 08:33N 51°48' E 001°46'1010.0
2015-Feb-17 07:33N 51°45' E 001°30'1111.4
2015-Feb-17 06:33N 51°37' E 001°19'1312.6
2015-Feb-17 05:33N 51°30' E 001°02'6 6.4
2015-Feb-17 04:33N 51°30' E 000°51'0 0.0
2015-Feb-17 03:32N 51°30' E 000°51'0 0.0
2015-Feb-17 02:31N 51°30' E 000°51'0 0.0
2015-Feb-17 01:32N 51°30' E 000°51'0 0.0
2015-Feb-17 00:33N 51°30' E 000°51'0 0.1
2015-Feb-16 23:33N 51°30' E 000°51'0 0.1
2015-Feb-16 22:34N 51°30' E 000°51'0 0.2
2015-Feb-16 21:33N 51°30' E 000°51'0 0.0
2015-Feb-16 20:33N 51°30' E 000°51'0 0.0
2015-Feb-16 19:33N 51°30' E 000°51'0 0.0
2015-Feb-16 18:33N 51°30' E 000°51'0 0.1
2015-Feb-16 17:32N 51°30' E 000°51'0 0.2
2015-Feb-16 16:34N 51°30' E 000°51'0 0.1
2015-Feb-16 15:31N 51°30' E 000°51'0 0.0
2015-Feb-16 14:31N 51°30' E 000°51'0 0.0
2015-Feb-16 13:33N 51°30' E 000°51'0 0.0
2015-Feb-16 12:33N 51°30' E 000°51'0 0.0
2015-Feb-16 11:33N 51°30' E 000°51'0 0.2
2015-Feb-16 10:33N 51°30' E 000°51'0 0.1
2015-Feb-16 09:33N 51°30' E 000°51'8 7.6
2015-Feb-16 08:33N 51°30' E 000°39'5 5.2
2015-Feb-16 07:34N 51°30' E 000°30'0 0.0
2015-Feb-16 06:33N 51°30' E 000°30'0 0.0
2015-Feb-14 07:21N 51°30' E 000°30'0 0.0
2015-Feb-14 06:33N 51°30' E 000°30'5 4.8
2015-Feb-14 05:33N 51°30' E 000°38'1010.1
2015-Feb-14 04:34N 51°29' E 000°54'10 9.7
2015-Feb-14 03:33N 51°33' E 001°09'1110.7
2015-Feb-14 02:33N 51°39' E 001°23'1110.7
2015-Feb-14 01:33N 51°48' E 001°33'7 7.4
2015-Feb-14 00:33N 51°53' E 001°41'1 0.9
2015-Feb-13 23:31N 51°54' E 001°41'0 0.1
2015-Feb-13 22:31N 51°54' E 001°41'4 4.2
2015-Feb-13 21:33N 51°52' E 001°47'1211.8
2015-Feb-13 20:33N 51°41' E 001°49'1413.6
2015-Feb-13 19:33N 51°28' E 001°58'1313.1
2015-Feb-13 18:33N 51°16' E 002°05'1515.4
2015-Feb-13 17:33N 51°07' E 001°46'1616.1
2015-Feb-13 16:33N 50°55' E 001°28'  
2015-Feb-10 22:26N 39°13' W 009°57'1814.6
2015-Feb-10 21:14N 38°55' W 009°57'1015.1
2015-Feb-10 20:34N 38°45' W 009°57'1515.1
2015-Feb-10 19:33N 38°30' W 009°53'1515.1
2015-Feb-10 18:33N 38°15' W 009°49'1814.7
2015-Feb-10 17:21N 37°58' W 009°44'1314.8
2015-Feb-10 16:28N 37°45' W 009°40'1414.9
2015-Feb-10 15:33N 37°32' W 009°36'21912.8
2015-Feb-09 22:29N 36°00' W 005°29'8 9.1
2015-Feb-09 21:33N 36°07' W 005°23'1 0.8
2015-Feb-09 20:31N 36°08' W 005°23'0 0.1
2015-Feb-09 19:28N 36°08' W 005°23'0 0.0
2015-Feb-09 18:31N 36°08' W 005°23'0 0.0
2015-Feb-09 17:31N 36°08' W 005°23'0 0.0
2015-Feb-09 16:28N 36°08' W 005°23'0 0.0
2015-Feb-09 15:31N 36°08' W 005°23'0 0.0
2015-Feb-09 14:32N 36°08' W 005°23'0 0.2
2015-Feb-09 13:31N 36°08' W 005°23'0 0.0
2015-Feb-09 12:22N 36°08' W 005°23'0 0.0
2015-Feb-09 11:25N 36°08' W 005°23'1 0.6
2015-Feb-09 10:33N 36°07' W 005°23'3 3.1
2015-Feb-09 09:34N 36°06' W 005°20'2 2.2
2015-Feb-09 08:33N 36°06' W 005°17'7 7.2
2015-Feb-09 07:34N 36°09' W 005°09'2 2.2
2015-Feb-09 06:33N 36°08' W 005°11'2 2.2
2015-Feb-09 05:33N 36°06' W 005°13'  
Track history (hours):
 
Tides and Currents Weather Stations Pressure Air Temp Water Temp Dewpoint Dewpoint Depression Visibility Wind Speed Wind Dir Waves Ship Positions

King Philippos

Last reported at 2015-Feb-17 09:32 UTC. Time now 2015-Feb-28 17:29 UTC.
Position N 51°51' E 002°03'.
Warning: this ship's position is 11 days out of date.

Length 250 m; draft 8.5 m.

Type: Tanker. MMSI: 229046000.

Date/timePositionNaut miles runAvg speedWind from/ knotsBaromVisibWave heightAir tempDewpointWater temp
2015-Feb-17 09:32N 51°51' E 002°03'1111.7
2015-Feb-17 08:33N 51°48' E 001°46'1010.0
2015-Feb-17 07:33N 51°45' E 001°30'1111.4
2015-Feb-17 06:33N 51°37' E 001°19'1312.6
2015-Feb-17 05:33N 51°30' E 001°02'6 6.4
2015-Feb-17 04:33N 51°30' E 000°51'0 0.0
2015-Feb-17 03:32N 51°30' E 000°51'0 0.0
2015-Feb-17 02:31N 51°30' E 000°51'0 0.0
2015-Feb-17 01:32N 51°30' E 000°51'0 0.0
2015-Feb-17 00:33N 51°30' E 000°51'0 0.1
2015-Feb-16 23:33N 51°30' E 000°51'0 0.1
2015-Feb-16 22:34N 51°30' E 000°51'0 0.2
2015-Feb-16 21:33N 51°30' E 000°51'0 0.0
2015-Feb-16 20:33N 51°30' E 000°51'0 0.0
2015-Feb-16 19:33N 51°30' E 000°51'0 0.0
2015-Feb-16 18:33N 51°30' E 000°51'0 0.1
2015-Feb-16 17:32N 51°30' E 000°51'0 0.2
2015-Feb-16 16:34N 51°30' E 000°51'0 0.1
2015-Feb-16 15:31N 51°30' E 000°51'0 0.0
2015-Feb-16 14:31N 51°30' E 000°51'0 0.0
2015-Feb-16 13:33N 51°30' E 000°51'0 0.0
2015-Feb-16 12:33N 51°30' E 000°51'0 0.0
2015-Feb-16 11:33N 51°30' E 000°51'0 0.2
2015-Feb-16 10:33N 51°30' E 000°51'0 0.1
2015-Feb-16 09:33N 51°30' E 000°51'8 7.6
2015-Feb-16 08:33N 51°30' E 000°39'5 5.2
2015-Feb-16 07:34N 51°30' E 000°30'0 0.0
2015-Feb-16 06:33N 51°30' E 000°30'0 0.0
2015-Feb-14 07:21N 51°30' E 000°30'0 0.0
2015-Feb-14 06:33N 51°30' E 000°30'5 4.8
2015-Feb-14 05:33N 51°30' E 000°38'1010.1
2015-Feb-14 04:34N 51°29' E 000°54'10 9.7
2015-Feb-14 03:33N 51°33' E 001°09'1110.7
2015-Feb-14 02:33N 51°39' E 001°23'1110.7
2015-Feb-14 01:33N 51°48' E 001°33'7 7.4
2015-Feb-14 00:33N 51°53' E 001°41'1 0.9
2015-Feb-13 23:31N 51°54' E 001°41'0 0.1
2015-Feb-13 22:31N 51°54' E 001°41'4 4.2
2015-Feb-13 21:33N 51°52' E 001°47'1211.8
2015-Feb-13 20:33N 51°41' E 001°49'1413.6
2015-Feb-13 19:33N 51°28' E 001°58'1313.1
2015-Feb-13 18:33N 51°16' E 002°05'1515.4
2015-Feb-13 17:33N 51°07' E 001°46'1616.1
2015-Feb-13 16:33N 50°55' E 001°28'  
2015-Feb-10 22:26N 39°13' W 009°57'1814.6
2015-Feb-10 21:14N 38°55' W 009°57'1015.1
2015-Feb-10 20:34N 38°45' W 009°57'1515.1
2015-Feb-10 19:33N 38°30' W 009°53'1515.1
2015-Feb-10 18:33N 38°15' W 009°49'1814.7
2015-Feb-10 17:21N 37°58' W 009°44'1314.8
2015-Feb-10 16:28N 37°45' W 009°40'1414.9
2015-Feb-10 15:33N 37°32' W 009°36'21912.8
2015-Feb-09 22:29N 36°00' W 005°29'8 9.1
2015-Feb-09 21:33N 36°07' W 005°23'1 0.8
2015-Feb-09 20:31N 36°08' W 005°23'0 0.1
2015-Feb-09 19:28N 36°08' W 005°23'0 0.0
2015-Feb-09 18:31N 36°08' W 005°23'0 0.0
2015-Feb-09 17:31N 36°08' W 005°23'0 0.0
2015-Feb-09 16:28N 36°08' W 005°23'0 0.0
2015-Feb-09 15:31N 36°08' W 005°23'0 0.0
2015-Feb-09 14:32N 36°08' W 005°23'0 0.2
2015-Feb-09 13:31N 36°08' W 005°23'0 0.0
2015-Feb-09 12:22N 36°08' W 005°23'0 0.0
2015-Feb-09 11:25N 36°08' W 005°23'1 0.6
2015-Feb-09 10:33N 36°07' W 005°23'3 3.1
2015-Feb-09 09:34N 36°06' W 005°20'2 2.2
2015-Feb-09 08:33N 36°06' W 005°17'7 7.2
2015-Feb-09 07:34N 36°09' W 005°09'2 2.2
2015-Feb-09 06:33N 36°08' W 005°11'2 2.2
2015-Feb-09 05:33N 36°06' W 005°13'  

Dump ship's entire track history